Last 24 Hours

Pinyon

10 Minute Data | America/Los_Angeles
as of 1/27/20 10:37 AM PST
Date & Time Temp (°F) Dew Pt (°F) RH (%) Wind Spd (mph) Wind Dir (°) Wind Gust (mph) Wind Gst Dir (°) Daily Max Temp (°F) Daily Min Temp (°F)
1/27/20 - 1030 53.4 23.3 31 6.2 NNE | 31 12.5 N | 9 55.7 48.9
1/27/20 - 1020 53.4 23.0 30 4.3 NE | 40 9.2 NNE | 21 55.7 48.9
1/27/20 - 1010 53.1 22.3 30 4.1 NE | 55 9.4 NNE | 26 55.7 48.9
1/27/20 - 1000 53.5 22.3 29 4.4 NNE | 24 9.4 N | 0 55.7 48.9
1/27/20 - 0950 53.3 22.1 29 4.4 NNE | 30 10.3 NNE | 15 55.7 48.9
1/27/20 - 0940 53.0 22.4 30 3.3 NNE | 16 7.0 NNE | 27 55.7 48.9
1/27/20 - 0930 53.3 22.6 30 5.7 N | 11 11.4 NE | 46 55.7 48.9
1/27/20 - 0920 53.1 22.4 30 2.6 N | 5 6.4 N | 4 55.7 48.9
1/27/20 - 0910 53.1 22.6 30 3.6 N | 5 6.6 NNE | 15 55.7 48.9
1/27/20 - 0900 52.8 22.5 30 4.0 NNE | 22 8.1 N | 8 55.7 48.9
1/27/20 - 0850 52.3 22.7 31 1.6 NE | 34 4.8 NNE | 21 55.7 48.9
1/27/20 - 0840 51.9 22.3 31 3.2 NNE | 21 5.3 NNE | 12 55.7 48.9
1/27/20 - 0830 51.8 22.8 32 2.7 NNE | 16 4.4 NNE | 21 55.7 48.9
1/27/20 - 0820 51.3 23.2 33 1.7 NNE | 20 5.0 NNE | 12 55.7 48.9
1/27/20 - 0810 51.0 23.1 33 3.5 N | 11 5.0 N | 11 55.7 48.9
1/27/20 - 0800 50.7 24.4 36 3.3 NNE | 20 6.4 NNE | 23 55.7 48.9
1/27/20 - 0750 50.5 24.8 36 5.1 NNE | 22 9.2 NNE | 12 55.7 48.9
1/27/20 - 0740 50.2 26.6 40 2.7 NNE | 20 5.0 NE | 34 55.7 48.9
1/27/20 - 0730 50.0 27.0 41 5.4 NNE | 26 9.2 NNE | 18 55.7 48.9
1/27/20 - 0720 49.5 27.5 42 5.2 NNE | 20 7.7 N | 4 55.7 48.9
1/27/20 - 0710 49.2 27.3 42 2.6 NNE | 25 5.5 N | 9 55.7 48.9
1/27/20 - 0700 49.2 27.4 43 1.2 NE | 47 4.4 ENE | 68 55.7 48.9
1/27/20 - 0650 49.2 27.9 43 0.4 NE | 41 2.8 N | 11 55.7 48.9
1/27/20 - 0640 49.2 28.6 45 1.7 NE | 46 4.8 N | 9 55.7 48.9
1/27/20 - 0630 49.2 29.0 45 3.7 NNE | 13 6.4 NNE | 19 55.7 48.9
1/27/20 - 0620 49.1 29.2 46 4.9 N | 5 8.1 N | 11 55.7 48.9
1/27/20 - 0610 49.4 29.4 46 4.6 N | 0 6.8 N | 11 55.7 49.2
1/27/20 - 0600 49.5 29.3 46 4.3 N | 356 6.6 NNW | 347 55.7 49.4
1/27/20 - 0550 49.7 29.5 46 4.9 NNW | 338 7.5 NNW | 337 55.7 49.4
1/27/20 - 0540 50.4 30.1 46 5.4 NNW | 337 7.9 NNW | 339 55.7 50.0
1/27/20 - 0530 50.6 30.5 46 5.5 NNW | 337 6.6 NNW | 331 55.7 50.1
1/27/20 - 0520 50.3 30.4 46 5.9 NNW | 339 7.9 NNW | 335 55.7 50.1
1/27/20 - 0510 50.4 30.5 46 5.2 NNW | 333 7.2 NW | 319 55.7 50.2
1/27/20 - 0500 50.3 30.6 47 4.8 N | 356 8.1 NNE | 15 55.7 50.2
1/27/20 - 0450 50.4 30.5 46 5.6 N | 350 8.3 NNW | 335 55.7 50.2
1/27/20 - 0440 50.6 30.1 45 5.4 NNW | 342 8.6 NNW | 338 55.7 50.5
1/27/20 - 0430 51.4 29.8 43 5.0 NNW | 331 8.1 NNW | 339 55.7 50.7
1/27/20 - 0420 51.5 29.8 43 4.7 NNW | 332 6.1 NNW | 346 55.7 51.3
1/27/20 - 0410 51.5 29.2 42 5.1 NNW | 338 7.2 N | 3 55.7 51.3
1/27/20 - 0400 51.8 28.8 41 2.6 NNW | 339 5.7 NNW | 329 55.7 51.5
1/27/20 - 0350 52.4 28.4 39 2.2 NNE | 18 3.5 NNE | 32 55.7 52.0
1/27/20 - 0340 52.7 28.4 39 2.4 ENE | 74 3.9 ENE | 75 55.7 52.6
1/27/20 - 0330 53.0 28.4 38 3.5 E | 81 7.5 E | 97 55.7 52.6
1/27/20 - 0320 52.9 28.1 38 2.8 ENE | 67 6.8 ENE | 64 55.7 52.6
1/27/20 - 0310 52.8 27.4 37 4.1 ENE | 77 7.7 ENE | 69 55.7 52.6
1/27/20 - 0300 53.2 27.0 36 3.6 E | 83 7.0 E | 87 55.7 52.8
1/27/20 - 0250 53.5 26.7 35 3.8 ESE | 102 9.6 ESE | 110 55.7 53.3
1/27/20 - 0240 53.9 26.3 34 4.1 E | 95 9.0 ESE | 107 55.7 53.6
1/27/20 - 0230 54.0 25.9 33 3.8 E | 96 6.6 E | 89 55.7 53.6
1/27/20 - 0220 54.3 26.0 33 4.2 ENE | 63 6.8 ENE | 68 55.7 53.8
1/27/20 - 0210 54.5 26.0 33 6.2 NNE | 30 15.1 N | 2 55.7 53.8
1/27/20 - 0200 54.2 25.5 33 3.3 NNE | 32 5.9 NE | 39 55.7 53.8
1/27/20 - 0150 54.6 25.4 32 2.6 N | 358 6.4 NE | 36 55.7 53.8
1/27/20 - 0140 54.6 25.0 32 2.8 NNW | 339 5.3 N | 0 55.7 53.8
1/27/20 - 0130 54.5 24.3 31 0.6 S | 180 2.0 S | 179 55.7 53.8
1/27/20 - 0120 54.6 24.1 30 1.8 S | 180 3.3 SSE | 156 55.7 53.8
1/27/20 - 0110 54.7 24.3 30 1.5 ESE | 120 3.1 ENE | 77 55.7 53.8
1/27/20 - 0100 55.0 24.1 30 2.1 N | 10 6.4 NNW | 347 55.7 53.8
1/27/20 - 0050 54.8 23.7 30 2.7 NE | 38 6.1 ENE | 73 55.7 53.8
1/27/20 - 0040 55.0 23.4 29 2.7 NNW | 348 4.2 N | 354 55.7 53.8
1/27/20 - 0030 54.9 23.3 29 2.4 NW | 325 3.9 N | 3 55.6 53.8
1/27/20 - 0020 54.0 24.3 31 1.0 N | 4 8.3 NNE | 18 54.6 53.8
1/27/20 - 0010 54.2 24.4 31 1.2 NNE | 16 2.6 N | 7 54.6 53.8
1/27/20 - 0000 53.6 22.6 30 0.6 N | 350 2.0 NNW | 343 60.6 48.1
1/26/20 - 2350 53.6 21.4 28 1.6 WNW | 288 2.8 WNW | 294 60.6 48.1
1/26/20 - 2340 52.3 21.4 29 3.9 WNW | 293 5.5 WNW | 290 60.6 48.1
1/26/20 - 2330 54.0 21.8 28 3.5 NNW | 343 5.0 NNE | 24 60.6 48.1
1/26/20 - 2320 53.8 21.2 28 2.3 N | 356 5.3 NNW | 343 60.6 48.1
1/26/20 - 2310 52.6 21.4 29 2.5 WSW | 253 6.1 SW | 229 60.6 48.1
1/26/20 - 2300 51.2 22.4 32 4.5 SW | 232 6.6 SW | 225 60.6 48.1
1/26/20 - 2250 49.7 23.5 35 5.1 SW | 223 8.6 SW | 215 60.6 48.1
1/26/20 - 2240 49.8 23.9 36 7.2 SW | 235 11.0 WSW | 238 60.6 48.1
1/26/20 - 2230 50.5 23.9 35 6.7 WSW | 250 10.3 WSW | 239 60.6 48.1
1/26/20 - 2220 51.3 23.3 33 4.2 WSW | 245 5.9 WSW | 251 60.6 48.1
1/26/20 - 2210 50.1 24.4 36 6.1 SW | 226 8.8 SW | 223 60.6 48.1
1/26/20 - 2200 49.2 25.7 40 8.1 SW | 216 11.0 SW | 225 60.6 48.1
1/26/20 - 2150 49.3 27.1 42 8.0 SW | 218 10.7 SW | 214 60.6 48.1
1/26/20 - 2140 49.1 27.7 43 8.0 SW | 219 11.4 SW | 219 60.6 48.1
1/26/20 - 2130 49.0 28.4 45 7.8 SW | 220 11.6 SSW | 211 60.6 48.1
1/26/20 - 2120 49.0 29.4 46 7.7 SW | 220 11.4 SW | 215 60.6 48.1
1/26/20 - 2110 49.1 29.4 46 8.8 SW | 225 13.4 SSW | 212 60.6 48.1
1/26/20 - 2100 49.5 29.3 45 9.9 SW | 228 15.3 SW | 228 60.6 48.1
1/26/20 - 2050 50.1 29.3 45 9.9 SW | 232 14.2 WSW | 237 60.6 48.1
1/26/20 - 2040 50.1 30.3 46 10.3 SW | 229 14.0 SW | 229 60.6 48.1
1/26/20 - 2030 50.2 31.6 49 10.7 SW | 226 14.0 SW | 215 60.6 48.1
1/26/20 - 2020 49.3 33.6 55 11.7 SW | 218 16.4 SSW | 205 60.6 48.1
1/26/20 - 2010 48.8 34.7 58 11.2 SW | 220 14.9 SW | 217 60.6 48.1
1/26/20 - 2000 49.7 34.6 56 10.8 SW | 229 17.3 SW | 225 60.6 48.1
1/26/20 - 1950 49.6 33.9 55 11.0 WSW | 239 16.9 SW | 228 60.6 48.1
1/26/20 - 1940 48.5 33.5 56 12.0 SW | 229 18.4 SW | 224 60.6 48.1
1/26/20 - 1930 48.3 33.5 56 13.3 SW | 231 21.3 SW | 230 60.6 48.1
1/26/20 - 1920 48.4 33.2 56 14.2 SW | 236 21.5 WSW | 256 60.6 48.1
1/26/20 - 1910 48.4 33.6 56 15.1 SW | 232 20.8 WSW | 251 60.6 48.1
1/26/20 - 1900 49.5 32.0 51 10.1 SW | 234 15.1 SW | 217 60.6 48.2
1/26/20 - 1850 50.3 31.0 47 14.5 WSW | 243 21.3 WSW | 239 60.6 49.2
1/26/20 - 1840 49.6 33.0 53 14.9 SW | 228 22.1 SSW | 205 60.6 49.2
1/26/20 - 1830 49.4 33.1 53 14.4 SW | 221 20.8 SW | 222 60.6 49.2
1/26/20 - 1820 50.2 33.0 51 15.6 SW | 227 23.2 SW | 229 60.6 49.6
1/26/20 - 1810 50.4 34.3 54 16.6 SW | 226 24.6 SW | 223 60.6 49.6
1/26/20 - 1800 51.0 33.7 51 16.3 SW | 225 25.2 SW | 230 60.6 49.6
1/26/20 - 1750 51.4 33.4 50 16.7 SW | 222 25.0 SW | 217 60.6 49.6
1/26/20 - 1740 51.8 32.7 48 16.7 SW | 224 23.9 SW | 215 60.6 49.6
1/26/20 - 1730 52.1 32.5 47 16.3 SW | 222 23.7 SW | 222 60.6 49.6
1/26/20 - 1720 52.6 31.4 44 16.9 SW | 225 25.0 SW | 223 60.6 49.6
1/26/20 - 1710 53.0 31.5 44 16.6 SW | 226 26.7 SW | 233 60.6 49.6
1/26/20 - 1700 53.9 31.4 42 19.6 SW | 228 30.0 SW | 234 60.6 49.6
1/26/20 - 1650 54.5 30.8 40 18.6 SW | 232 26.5 SW | 228 60.6 49.6
1/26/20 - 1640 55.3 30.6 39 17.3 SW | 234 25.2 SW | 230 60.6 49.6
1/26/20 - 1630 56.2 29.6 36 16.5 SW | 234 25.9 SW | 228 60.6 49.6
1/26/20 - 1620 56.9 28.7 34 15.8 WSW | 239 21.9 WSW | 241 60.6 49.6
1/26/20 - 1610 57.4 29.1 34 15.1 SW | 236 20.4 WSW | 243 60.6 49.6
1/26/20 - 1600 57.7 29.8 34 14.8 WSW | 237 19.5 WSW | 245 60.6 49.6
1/26/20 - 1550 58.1 29.8 34 15.1 SW | 236 21.3 WSW | 237 60.6 49.6
1/26/20 - 1540 58.2 28.7 32 15.6 SW | 228 22.6 WSW | 238 60.6 49.6
1/26/20 - 1530 58.2 27.6 31 16.0 SW | 232 21.7 SSW | 211 60.6 49.6
1/26/20 - 1520 58.1 27.0 30 16.4 SW | 226 23.2 SW | 228 60.6 49.6
1/26/20 - 1510 58.1 27.2 30 16.6 SW | 229 22.6 SW | 225 60.6 49.6
1/26/20 - 1500 58.6 27.4 30 15.0 SW | 230 21.7 SW | 233 60.6 49.6
1/26/20 - 1450 58.5 28.9 32 16.1 SW | 225 27.0 SSW | 207 60.6 49.6
1/26/20 - 1440 58.7 29.6 33 16.8 SW | 226 25.2 SW | 229 60.6 49.6
1/26/20 - 1430 58.5 29.8 33 17.6 SW | 227 24.8 WSW | 239 60.6 49.6
1/26/20 - 1420 59.0 29.5 32 14.0 SW | 227 22.4 SW | 236 60.6 49.6
1/26/20 - 1410 59.6 29.2 31 14.2 SW | 235 21.3 SW | 233 60.6 49.6
1/26/20 - 1400 59.5 29.5 32 12.2 WSW | 240 20.2 WSW | 248 60.4 49.6
1/26/20 - 1350 59.5 30.9 34 9.2 WSW | 252 16.4 W | 270 60.4 49.6
1/26/20 - 1340 59.7 32.9 36 10.6 W | 259 19.1 WSW | 238 60.4 49.6
1/26/20 - 1330 58.9 35.0 41 3.5 WNW | 293 12.1 W | 266 60.4 49.6
1/26/20 - 1320 56.1 34.2 44 3.2 NNE | 28 7.7 N | 354 59.6 49.6
1/26/20 - 1310 55.0 34.0 45 3.7 NE | 41 7.0 ENE | 62 59.6 49.6
1/26/20 - 1300 54.6 33.9 45 5.5 NE | 35 10.1 NE | 47 59.6 49.6
1/26/20 - 1250 54.8 33.6 44 4.9 NNE | 30 8.3 NNE | 19 59.6 49.6
1/26/20 - 1240 53.9 33.3 45 6.5 NNE | 30 9.4 NE | 34 59.6 49.6
1/26/20 - 1230 54.2 33.5 45 5.9 NE | 35 9.2 NNE | 24 59.6 49.6
1/26/20 - 1220 53.5 33.2 46 6.0 NE | 35 10.7 NE | 44 59.6 49.6
1/26/20 - 1210 53.5 33.0 46 6.6 NE | 43 9.6 NE | 46 59.6 49.6
1/26/20 - 1200 54.5 33.1 44 6.8 NE | 36 10.7 NE | 51 59.6 49.6
1/26/20 - 1150 57.5 31.7 38 4.4 N | 358 9.9 W | 269 59.6 49.6
1/26/20 - 1140 58.5 29.9 34 3.8 W | 259 10.5 W | 266 59.6 49.6
1/26/20 - 1130 58.3 29.7 33 5.0 W | 273 11.2 W | 264 59.6 49.6
1/26/20 - 1120 58.8 27.7 30 6.5 WSW | 255 14.0 W | 271 59.6 49.6
1/26/20 - 1110 58.7 27.5 30 6.3 WSW | 239 12.9 W | 262 59.4 49.6
1/26/20 - 1100 58.0 27.0 30 8.5 WSW | 244 14.2 W | 261 58.9 49.6
1/26/20 - 1050 58.2 28.6 32 7.6 WSW | 251 14.7 SW | 228 58.9 49.6
1/26/20 - 1040 57.9 28.4 32 8.7 WSW | 248 15.3 W | 262 58.9 49.6
1/26/20 - 1030 58.2 29.1 33 8.8 WSW | 237 16.2 SW | 216 58.9 49.6
Max 59.7 35.0 58 19.6 - 30.0 - 60.6 53.8
Avg 53.1 28.2 39 7.5 - 12.1 - - -
Min 48.3 21.2 28 0.4 - 2.0 - 54.6 48.1